Time;durP1;ratioP1;P1;durP2;ratioP2;P2;SDS_P1;SDS_P2;PMS_P1;PMS_P2;Temp;Humidity;BMP_temperature;BMP_pressure;BME280_temperature;BME280_humidity;BME280_pressure;Samples;Min_cycle;Max_cycle;Signal;HPM_P1;HPM_P2
2024/01/02 00:01:24;;;;;;;;;;;2.30;99.90;;;;;;5057872;28;19912;-77
2024/01/02 00:03:50;;;;;;;;;;;2.10;99.90;;;;;;5039699;28;19912;-78
2024/01/02 00:06:16;;;;;;;;;;;2.10;99.90;;;;;;5039978;28;19912;-76
2024/01/02 00:08:42;;;;;;;;;;;2.10;99.90;;;;;;5038934;28;19908;-77
2024/01/02 00:11:08;;;;;;;;;;;2.20;99.90;;;;;;5057674;28;19905;-78
2024/01/02 00:13:35;;;;;;;;;;;2.20;99.90;;;;;;5039410;28;19905;-77
2024/01/02 00:16:00;;;;;;;;;;;2.10;99.90;;;;;;5057907;28;19909;-78
2024/01/02 00:18:26;;;;;;;;;;;2.10;99.90;;;;;;5046519;28;20018;-78
2024/01/02 00:20:51;;;;;;;;;;;2.10;99.90;;;;;;5047396;28;19913;-79
2024/01/02 00:23:17;;;;;;;;;;;2.00;99.90;;;;;;5039018;28;20519;-76
2024/01/02 00:25:42;;;;;;;;;;;2.00;99.90;;;;;;5054648;28;19995;-76
2024/01/02 00:28:09;;;;;;;;;;;2.00;99.90;;;;;;5036909;28;19994;-76
2024/01/02 00:30:34;;;;;;;;;;;2.10;99.90;;;;;;5054871;28;19905;-76
2024/01/02 00:33:03;;;;;;;;;;;2.10;99.90;;;;;;5036457;28;20381;-76
2024/01/02 00:35:29;;;;;;;;;;;2.10;99.90;;;;;;5036582;28;19987;-76
2024/01/02 00:37:54;;;;;;;;;;;2.10;99.90;;;;;;5036548;28;19904;-77
2024/01/02 00:40:20;;;;;;;;;;;2.20;99.90;;;;;;5036321;28;20039;-77
2024/01/02 00:42:45;;;;;;;;;;;2.20;99.90;;;;;;5036789;28;20002;-76
2024/01/02 00:45:11;;;;;;;;;;;2.10;99.90;;;;;;5036959;28;19913;-76
2024/01/02 00:47:36;;;;;;;;;;;2.00;99.90;;;;;;5037193;28;20361;-77
2024/01/02 00:50:03;;;;;;;;;;;2.00;99.90;;;;;;5036896;28;19905;-77
2024/01/02 00:52:29;;;;;;;;;;;2.10;99.90;;;;;;5037049;28;20007;-76
2024/01/02 00:54:54;;;;;;;;;;;1.90;99.90;;;;;;5036655;28;19952;-76
2024/01/02 00:57:20;;;;;;;;;;;2.10;99.90;;;;;;5036831;28;19908;-76
2024/01/02 00:59:45;;;;;;;;;;;2.00;99.90;;;;;;5054768;28;20366;-76
2024/01/02 01:02:11;;;;;;;;;;;2.10;99.90;;;;;;5054493;28;19928;-76
2024/01/02 01:04:40;;;;;;;;;;;2.00;99.90;;;;;;5036738;28;19904;-76
2024/01/02 01:07:05;;;;;;;;;;;2.10;99.90;;;;;;5055196;28;19911;-76
2024/01/02 01:09:31;;;;;;;;;;;2.10;99.90;;;;;;5037140;28;19912;-76
2024/01/02 01:11:56;;;;;;;;;;;2.00;99.90;;;;;;5055535;28;20424;-76
2024/01/02 01:14:22;;;;;;;;;;;2.00;99.90;;;;;;5054706;28;19947;-76
2024/01/02 01:16:47;;;;;;;;;;;2.10;99.90;;;;;;5053747;28;19955;-76
2024/01/02 01:19:13;;;;;;;;;;;2.10;99.90;;;;;;5037405;28;19955;-75
2024/01/02 01:21:38;;;;;;;;;;;2.20;99.90;;;;;;5057967;28;19913;-76
2024/01/02 01:24:04;;;;;;;;;;;2.30;99.90;;;;;;5041322;28;19911;-77
2024/01/02 01:26:29;;;;;;;;;;;2.20;99.90;;;;;;5058662;28;19908;-76
2024/01/02 01:28:55;;;;;;;;;;;2.20;99.90;;;;;;5056261;28;20341;-77
2024/01/02 01:31:20;;;;;;;;;;;2.10;99.90;;;;;;5057700;28;19904;-76
2024/01/02 01:33:46;;;;;;;;;;;2.10;99.90;;;;;;5057579;28;19916;-76
2024/01/02 01:36:11;;;;;;;;;;;2.10;99.90;;;;;;5057571;28;19904;-75
2024/01/02 01:38:37;;;;;;;;;;;2.10;99.90;;;;;;5039254;28;20423;-77
2024/01/02 01:41:03;;;;;;;;;;;2.10;99.90;;;;;;5039482;28;19956;-76
2024/01/02 01:43:28;;;;;;;;;;;2.10;99.90;;;;;;5057647;28;19954;-77
2024/01/02 01:45:54;;;;;;;;;;;2.00;99.90;;;;;;5039545;28;19959;-77
2024/01/02 01:48:21;;;;;;;;;;;2.00;99.90;;;;;;5039678;28;19955;-76
2024/01/02 01:50:47;;;;;;;;;;;2.00;99.90;;;;;;5039998;28;19908;-77
2024/01/02 01:53:13;;;;;;;;;;;1.90;99.90;;;;;;5039054;28;19905;-76
2024/01/02 01:55:38;;;;;;;;;;;1.90;99.90;;;;;;5057144;28;20321;-76
2024/01/02 01:58:04;;;;;;;;;;;1.90;99.90;;;;;;5057721;28;19909;-76
2024/01/02 02:00:30;;;;;;;;;;;2.00;99.90;;;;;;5056996;28;19917;-78
2024/01/02 02:02:56;;;;;;;;;;;2.10;99.90;;;;;;5058321;28;19990;-76
2024/01/02 02:05:24;;;;;;;;;;;2.10;99.90;;;;;;5039638;28;19911;-76
2024/01/02 02:07:50;;;;;;;;;;;2.10;99.90;;;;;;5023718;28;20266;-77
2024/01/02 02:10:16;;;;;;;;;;;2.00;99.90;;;;;;5040415;28;19905;-77
2024/01/02 02:12:42;;;;;;;;;;;1.90;99.90;;;;;;5057234;28;19905;-76
2024/01/02 02:15:08;;;;;;;;;;;2.00;99.90;;;;;;5057119;28;19908;-75
2024/01/02 02:17:33;;;;;;;;;;;2.00;99.90;;;;;;5057399;28;19905;-76
2024/01/02 02:19:59;;;;;;;;;;;1.90;99.90;;;;;;5039927;28;19917;-77
2024/01/02 02:22:37;;;;;;;;;;;1.90;99.90;;;;;;5039993;28;19908;-76
2024/01/02 02:25:04;;;;;;;;;;;1.90;99.90;;;;;;5039539;28;19904;-76
2024/01/02 02:27:30;;;;;;;;;;;1.80;99.90;;;;;;5039546;28;19962;-77
2024/01/02 02:29:55;;;;;;;;;;;1.80;99.90;;;;;;5056516;28;19905;-76
2024/01/02 02:32:21;;;;;;;;;;;1.80;99.90;;;;;;5054721;28;19958;-76
2024/01/02 02:34:47;;;;;;;;;;;1.80;99.90;;;;;;5054909;28;19921;-76
2024/01/02 02:37:12;;;;;;;;;;;1.80;99.90;;;;;;5055181;28;19905;-76
2024/01/02 02:39:38;;;;;;;;;;;1.80;99.90;;;;;;5055379;28;19908;-76
2024/01/02 02:42:04;;;;;;;;;;;1.80;99.90;;;;;;5037252;28;19905;-76
2024/01/02 02:44:29;;;;;;;;;;;1.80;99.90;;;;;;5037488;28;19912;-76
2024/01/02 02:46:55;;;;;;;;;;;1.90;99.90;;;;;;5057638;28;20290;-76
2024/01/02 02:49:21;;;;;;;;;;;1.80;99.90;;;;;;5039060;28;19915;-76
2024/01/02 02:51:46;;;;;;;;;;;1.80;99.90;;;;;;5039527;28;19904;-76
2024/01/02 02:54:12;;;;;;;;;;;1.90;99.90;;;;;;5057257;28;20388;-76
2024/01/02 02:56:37;;;;;;;;;;;1.80;99.90;;;;;;5039776;28;19909;-76
2024/01/02 02:59:03;;;;;;;;;;;1.80;99.90;;;;;;5038636;28;19909;-76
2024/01/02 03:01:28;;;;;;;;;;;1.80;99.90;;;;;;5057119;28;19920;-76
2024/01/02 03:03:54;;;;;;;;;;;1.80;99.90;;;;;;5055911;28;20455;-76
2024/01/02 03:06:20;;;;;;;;;;;1.90;99.90;;;;;;5038918;28;19912;-76
2024/01/02 03:08:45;;;;;;;;;;;1.80;99.90;;;;;;5057560;28;19942;-76
2024/01/02 03:11:11;;;;;;;;;;;1.80;99.90;;;;;;5040149;28;19905;-77
2024/01/02 03:13:36;;;;;;;;;;;1.70;99.90;;;;;;5057668;28;19904;-76
2024/01/02 03:16:02;;;;;;;;;;;1.70;99.90;;;;;;5056584;28;19905;-76
2024/01/02 03:18:27;;;;;;;;;;;1.70;99.90;;;;;;5038818;28;19905;-76
2024/01/02 03:20:53;;;;;;;;;;;1.60;99.90;;;;;;5038141;28;19913;-75
2024/01/02 03:23:18;;;;;;;;;;;1.60;99.90;;;;;;5056283;28;19999;-75
2024/01/02 03:25:44;;;;;;;;;;;1.50;99.90;;;;;;5057397;28;19957;-76
2024/01/02 03:28:09;;;;;;;;;;;1.40;99.90;;;;;;5058252;28;19909;-76
2024/01/02 03:30:37;;;;;;;;;;;1.50;99.90;;;;;;5058497;28;19904;-76
2024/01/02 03:33:02;;;;;;;;;;;1.40;99.90;;;;;;5039854;28;20007;-76
2024/01/02 03:35:28;;;;;;;;;;;1.50;99.90;;;;;;5040393;28;19959;-78
2024/01/02 03:37:54;;;;;;;;;;;1.40;99.90;;;;;;5040739;28;19912;-77
2024/01/02 03:40:20;;;;;;;;;;;1.30;99.90;;;;;;5038958;28;19924;-77
2024/01/02 03:42:45;;;;;;;;;;;1.30;99.90;;;;;;5057810;28;19908;-76
2024/01/02 03:45:11;;;;;;;;;;;1.20;99.90;;;;;;5036146;28;20039;-76
2024/01/02 03:47:36;;;;;;;;;;;1.10;99.90;;;;;;5054304;28;20327;-76
2024/01/02 03:50:02;;;;;;;;;;;1.00;99.90;;;;;;5054023;28;20626;-76
2024/01/02 03:52:27;;;;;;;;;;;1.10;99.90;;;;;;5036559;28;19909;-76
2024/01/02 03:54:53;;;;;;;;;;;1.10;99.90;;;;;;5036318;28;19905;-76
2024/01/02 03:57:18;;;;;;;;;;;1.10;99.90;;;;;;5035986;28;19905;-76
2024/01/02 03:59:44;;;;;;;;;;;1.10;99.90;;;;;;5035486;28;20346;-75
2024/01/02 04:02:09;;;;;;;;;;;1.20;99.90;;;;;;5053664;28;20039;-76
2024/01/02 04:04:37;;;;;;;;;;;1.30;99.90;;;;;;5053893;28;19955;-75
2024/01/02 04:07:02;;;;;;;;;;;1.30;99.90;;;;;;5035631;28;20598;-75
2024/01/02 04:09:28;;;;;;;;;;;1.30;99.90;;;;;;5036070;28;19987;-76
2024/01/02 04:11:53;;;;;;;;;;;1.40;99.90;;;;;;5035497;28;19904;-76
2024/01/02 04:14:19;;;;;;;;;;;1.40;99.90;;;;;;5035440;28;19909;-75
2024/01/02 04:16:44;;;;;;;;;;;1.30;99.90;;;;;;5035460;28;19905;-75
2024/01/02 04:19:10;;;;;;;;;;;1.20;99.90;;;;;;5053972;28;19938;-76
2024/01/02 04:21:35;;;;;;;;;;;1.10;99.90;;;;;;5053532;28;20396;-76
2024/01/02 04:24:01;;;;;;;;;;;1.10;99.90;;;;;;5036241;28;20011;-76
2024/01/02 04:26:26;;;;;;;;;;;1.00;99.90;;;;;;5053568;28;19905;-75
2024/01/02 04:28:52;;;;;;;;;;;1.00;99.90;;;;;;5036090;28;20446;-76
2024/01/02 04:31:17;;;;;;;;;;;1.00;99.90;;;;;;5036768;28;19904;-75
2024/01/02 04:33:43;;;;;;;;;;;0.90;99.90;;;;;;5053747;28;20015;-76
2024/01/02 04:36:08;;;;;;;;;;;0.90;99.90;;;;;;5054245;28;20357;-76
2024/01/02 04:38:35;;;;;;;;;;;0.80;99.90;;;;;;5035872;28;19905;-75
2024/01/02 04:41:02;;;;;;;;;;;1.00;99.90;;;;;;5054636;28;19917;-76
2024/01/02 04:43:27;;;;;;;;;;;0.90;99.90;;;;;;5054989;28;19905;-76
2024/01/02 04:45:53;;;;;;;;;;;0.90;99.90;;;;;;5036410;28;19916;-76
2024/01/02 04:48:18;;;;;;;;;;;0.90;99.90;;;;;;5036751;28;19912;-76
2024/01/02 04:50:44;;;;;;;;;;;0.80;99.90;;;;;;5054767;28;19908;-76
2024/01/02 04:53:10;;;;;;;;;;;0.90;99.90;;;;;;5053865;28;20404;-76
2024/01/02 04:55:35;;;;;;;;;;;0.90;99.90;;;;;;5036508;28;19927;-76
2024/01/02 04:58:02;;;;;;;;;;;0.90;99.90;;;;;;5054985;28;20054;-77
2024/01/02 05:00:28;;;;;;;;;;;0.80;99.90;;;;;;5036447;28;19912;-76
2024/01/02 05:02:53;;;;;;;;;;;0.90;99.90;;;;;;5054817;28;19916;-75
2024/01/02 05:05:19;;;;;;;;;;;0.80;99.90;;;;;;5036867;28;19927;-77
2024/01/02 05:07:44;;;;;;;;;;;0.70;99.90;;;;;;5054708;28;19909;-77
2024/01/02 05:10:10;;;;;;;;;;;0.70;99.90;;;;;;5054771;28;19913;-76
2024/01/02 05:12:35;;;;;;;;;;;0.70;99.90;;;;;;5036422;28;19905;-75
2024/01/02 05:15:01;;;;;;;;;;;0.70;99.90;;;;;;5054813;28;19904;-76
2024/01/02 05:17:26;;;;;;;;;;;0.80;99.90;;;;;;5035835;28;19912;-76
2024/01/02 05:19:52;;;;;;;;;;;0.90;99.90;;;;;;5053170;28;19920;-76
2024/01/02 05:22:17;;;;;;;;;;;0.90;99.90;;;;;;5035182;28;19908;-76
2024/01/02 05:24:43;;;;;;;;;;;1.00;99.90;;;;;;5035058;28;19905;-76
2024/01/02 05:27:08;;;;;;;;;;;1.10;99.90;;;;;;5035119;28;20436;-76
2024/01/02 05:29:36;;;;;;;;;;;1.20;99.90;;;;;;5035058;28;19905;-76
2024/01/02 05:32:02;;;;;;;;;;;1.20;99.90;;;;;;5036420;28;19927;-77
2024/01/02 05:34:29;;;;;;;;;;;1.30;99.90;;;;;;5054399;28;19939;-76
2024/01/02 05:36:55;;;;;;;;;;;1.20;99.90;;;;;;5036702;28;19908;-76
2024/01/02 05:39:20;;;;;;;;;;;1.30;99.90;;;;;;5055229;28;20319;-76
2024/01/02 05:41:46;;;;;;;;;;;1.30;99.90;;;;;;5055198;28;19919;-76
2024/01/02 05:44:11;;;;;;;;;;;1.30;99.90;;;;;;5037144;28;19955;-76
2024/01/02 05:46:37;;;;;;;;;;;1.30;99.90;;;;;;5037291;28;19943;-77
2024/01/02 05:49:03;;;;;;;;;;;1.30;99.90;;;;;;5037676;28;19904;-76
2024/01/02 05:51:28;;;;;;;;;;;1.30;99.90;;;;;;5055273;28;19920;-76
2024/01/02 05:53:54;;;;;;;;;;;1.30;99.90;;;;;;5056481;28;19911;-77
2024/01/02 05:56:19;;;;;;;;;;;1.30;99.90;;;;;;5057328;28;19905;-79
2024/01/02 05:58:45;;;;;;;;;;;1.20;99.90;;;;;;5036389;28;20632;-77
2024/01/02 06:01:10;;;;;;;;;;;1.50;99.90;;;;;;5053887;28;19923;-76
2024/01/02 06:03:36;;;;;;;;;;;1.80;99.90;;;;;;5035775;28;19904;-76
2024/01/02 06:06:02;;;;;;;;;;;1.40;99.90;;;;;;5054128;28;19950;-76
2024/01/02 06:08:28;;;;;;;;;;;1.60;99.90;;;;;;5039847;28;19914;-77
2024/01/02 06:10:53;;;;;;;;;;;1.50;99.90;;;;;;5039619;28;19999;-78
2024/01/02 06:13:19;;;;;;;;;;;1.60;99.90;;;;;;5039281;28;19909;-76
2024/01/02 06:15:44;;;;;;;;;;;1.60;99.90;;;;;;5055878;28;19905;-77
2024/01/02 06:18:10;;;;;;;;;;;1.40;99.90;;;;;;5039488;28;20400;-77
2024/01/02 06:20:35;;;;;;;;;;;1.40;99.90;;;;;;5040032;28;19974;-78
2024/01/02 06:23:01;;;;;;;;;;;1.30;99.90;;;;;;5040318;28;19908;-77
2024/01/02 06:25:27;;;;;;;;;;;1.20;99.90;;;;;;5057932;28;19905;-76
2024/01/02 06:27:52;;;;;;;;;;;1.20;99.90;;;;;;5039851;28;20395;-76
2024/01/02 06:30:18;;;;;;;;;;;1.20;99.90;;;;;;5057730;28;19905;-75
2024/01/02 06:32:45;;;;;;;;;;;1.10;99.90;;;;;;5039576;28;19916;-76
2024/01/02 06:35:10;;;;;;;;;;;1.00;99.90;;;;;;5057285;28;20453;-78
2024/01/02 06:37:36;;;;;;;;;;;1.00;99.90;;;;;;5057660;28;20598;-76
2024/01/02 06:40:01;;;;;;;;;;;1.00;99.90;;;;;;5057395;28;19920;-77
2024/01/02 06:42:27;;;;;;;;;;;1.10;99.90;;;;;;5057526;28;19904;-76
2024/01/02 06:44:52;;;;;;;;;;;1.10;99.90;;;;;;5039452;28;19947;-77
2024/01/02 06:47:18;;;;;;;;;;;1.20;99.90;;;;;;5055587;28;19904;-77
2024/01/02 06:49:44;;;;;;;;;;;1.20;99.90;;;;;;5055560;28;19908;-76
2024/01/02 06:52:10;;;;;;;;;;;1.30;99.90;;;;;;5037703;28;19905;-77
2024/01/02 06:54:35;;;;;;;;;;;1.40;99.90;;;;;;5054693;28;19950;-75
2024/01/02 06:57:01;;;;;;;;;;;1.40;99.90;;;;;;5036593;28;19955;-77
2024/01/02 06:59:26;;;;;;;;;;;1.50;99.90;;;;;;5037158;28;20304;-77
2024/01/02 07:01:52;;;;;;;;;;;1.60;99.90;;;;;;5054616;28;19928;-76
2024/01/02 07:04:19;;;;;;;;;;;1.60;99.90;;;;;;5041920;28;19905;-82
2024/01/02 07:06:58;;;;;;;;;;;1.70;99.90;;;;;;5041535;28;19915;-83
2024/01/02 07:09:27;;;;;;;;;;;1.80;99.90;;;;;;5041485;28;19912;-78
2024/01/02 07:12:07;;;;;;;;;;;1.70;99.90;;;;;;5043964;28;19912;-79
2024/01/02 07:14:33;;;;;;;;;;;1.70;99.90;;;;;;5042815;28;19908;-76
2024/01/02 07:16:59;;;;;;;;;;;1.70;99.90;;;;;;5054867;28;19987;-77
2024/01/02 07:19:26;;;;;;;;;;;1.70;99.90;;;;;;5036440;28;20325;-76
2024/01/02 07:21:51;;;;;;;;;;;1.70;99.90;;;;;;5037136;28;19912;-76
2024/01/02 07:24:17;;;;;;;;;;;1.70;99.90;;;;;;5054551;28;19962;-75
2024/01/02 07:26:42;;;;;;;;;;;1.80;99.90;;;;;;5054974;28;20269;-75
2024/01/02 07:29:08;;;;;;;;;;;1.70;99.90;;;;;;5055522;28;20420;-76
2024/01/02 07:31:35;;;;;;;;;;;1.70;99.90;;;;;;5036825;28;20357;-75
2024/01/02 07:34:01;;;;;;;;;;;1.70;99.90;;;;;;5035992;28;19962;-75
2024/01/02 07:36:27;;;;;;;;;;;1.90;99.90;;;;;;5054710;28;19931;-75
2024/01/02 07:38:52;;;;;;;;;;;2.10;99.90;;;;;;5055496;28;19909;-75
2024/01/02 07:41:18;;;;;;;;;;;2.00;99.90;;;;;;5037208;28;19917;-76
2024/01/02 07:43:43;;;;;;;;;;;2.20;99.90;;;;;;5056079;28;19912;-76
2024/01/02 07:46:09;;;;;;;;;;;2.30;99.90;;;;;;5055423;28;19908;-76
2024/01/02 07:48:34;;;;;;;;;;;2.60;99.90;;;;;;5038081;28;19959;-76
2024/01/02 07:51:00;;;;;;;;;;;2.80;99.90;;;;;;5038360;28;20514;-76
2024/01/02 07:53:25;;;;;;;;;;;2.90;99.90;;;;;;5037786;28;19983;-76
2024/01/02 07:55:51;;;;;;;;;;;3.20;99.90;;;;;;5038452;28;19913;-75
2024/01/02 07:58:16;;;;;;;;;;;3.50;99.90;;;;;;5057049;28;19905;-75
2024/01/02 08:00:42;;;;;;;;;;;3.70;99.90;;;;;;5055403;28;20270;-75
2024/01/02 08:03:09;;;;;;;;;;;3.90;99.90;;;;;;5057858;28;19940;-76
2024/01/02 08:05:34;;;;;;;;;;;3.90;99.90;;;;;;5058401;28;19950;-77
2024/01/02 08:08:00;;;;;;;;;;;3.90;99.90;;;;;;5039895;28;20336;-75
2024/01/02 08:10:26;;;;;;;;;;;3.80;99.90;;;;;;5036295;28;19908;-74
2024/01/02 08:12:51;;;;;;;;;;;3.80;99.90;;;;;;5036154;28;19916;-76
2024/01/02 08:15:17;;;;;;;;;;;4.00;99.90;;;;;;5053359;28;19904;-76
2024/01/02 08:17:42;;;;;;;;;;;4.30;99.90;;;;;;5054188;28;19908;-75
2024/01/02 08:20:09;;;;;;;;;;;4.60;99.90;;;;;;5054492;28;19912;-76
2024/01/02 08:22:34;;;;;;;;;;;4.90;99.90;;;;;;5053754;28;19905;-76
2024/01/02 08:25:00;;;;;;;;;;;5.10;99.90;;;;;;5053766;28;19904;-76
2024/01/02 08:27:25;;;;;;;;;;;5.40;99.90;;;;;;5054082;28;19904;-75
2024/01/02 08:29:51;;;;;;;;;;;5.60;99.90;;;;;;5035076;28;19905;-75
2024/01/02 08:32:17;;;;;;;;;;;5.80;99.90;;;;;;5053713;28;20365;-75
2024/01/02 08:34:43;;;;;;;;;;;6.00;99.90;;;;;;5032700;28;19920;-76
2024/01/02 08:37:09;;;;;;;;;;;6.00;99.90;;;;;;5034000;28;19920;-75
2024/01/02 08:39:34;;;;;;;;;;;5.90;99.90;;;;;;5033141;28;19909;-76
2024/01/02 08:42:00;;;;;;;;;;;5.90;99.90;;;;;;5033320;28;19917;-76
2024/01/02 08:44:25;;;;;;;;;;;5.90;99.90;;;;;;5033269;28;19916;-75
2024/01/02 08:46:51;;;;;;;;;;;5.90;99.90;;;;;;5033163;28;19909;-76
2024/01/02 08:49:17;;;;;;;;;;;5.80;99.90;;;;;;5033396;28;19905;-76
2024/01/02 08:51:42;;;;;;;;;;;5.70;99.90;;;;;;5031774;28;19911;-76
2024/01/02 08:54:08;;;;;;;;;;;5.70;99.90;;;;;;5033165;28;19911;-76
2024/01/02 08:56:34;;;;;;;;;;;5.60;99.90;;;;;;5033426;28;19916;-76
2024/01/02 08:58:59;;;;;;;;;;;5.70;99.90;;;;;;5032975;28;19911;-76
2024/01/02 09:01:26;;;;;;;;;;;5.70;99.90;;;;;;5032949;28;20016;-76
2024/01/02 09:03:53;;;;;;;;;;;5.60;99.90;;;;;;5033207;28;19915;-76
2024/01/02 09:06:19;;;;;;;;;;;5.60;99.90;;;;;;5031882;28;19909;-76
2024/01/02 09:08:45;;;;;;;;;;;5.60;99.90;;;;;;5032910;28;19966;-76
2024/01/02 09:11:11;;;;;;;;;;;5.80;99.90;;;;;;5033343;28;20339;-77
2024/01/02 09:13:36;;;;;;;;;;;5.80;99.90;;;;;;5031771;28;19963;-76
2024/01/02 09:16:02;;;;;;;;;;;5.70;99.90;;;;;;5033190;28;19909;-76
2024/01/02 09:18:29;;;;;;;;;;;5.80;99.90;;;;;;5035208;28;19913;-77
2024/01/02 09:20:55;;;;;;;;;;;6.00;99.90;;;;;;5035855;28;19913;-77
2024/01/02 09:23:20;;;;;;;;;;;5.80;99.90;;;;;;5036119;28;20438;-76
2024/01/02 09:25:46;;;;;;;;;;;5.90;99.90;;;;;;5034566;28;19905;-77
2024/01/02 09:28:13;;;;;;;;;;;5.80;99.90;;;;;;5034350;28;19905;-76
2024/01/02 09:30:38;;;;;;;;;;;5.90;99.90;;;;;;5036853;28;20000;-76
2024/01/02 09:33:04;;;;;;;;;;;6.00;99.90;;;;;;5037791;28;20369;-76
2024/01/02 09:35:30;;;;;;;;;;;6.00;99.90;;;;;;5053519;28;20000;-77
2024/01/02 09:37:56;;;;;;;;;;;6.10;99.90;;;;;;5035561;28;19905;-76
2024/01/02 09:40:28;;;;;;;;;;;6.20;99.90;;;;;;5054636;28;19913;-77
2024/01/02 09:42:56;;;;;;;;;;;6.30;99.90;;;;;;5057405;28;19915;-77
2024/01/02 09:45:40;;;;;;;;;;;6.40;99.90;;;;;;5038817;28;19905;-76
2024/01/02 09:48:13;;;;;;;;;;;6.40;99.90;;;;;;5058671;28;19905;-76
2024/01/02 09:50:50;;;;;;;;;;;6.50;99.90;;;;;;5042579;28;19916;-76
2024/01/02 09:53:34;;;;;;;;;;;6.50;99.90;;;;;;5060483;28;19905;-76
2024/01/02 09:56:09;;;;;;;;;;;6.50;99.90;;;;;;5060016;28;19909;-76
2024/01/02 09:58:38;;;;;;;;;;;6.50;99.90;;;;;;5042409;28;19912;-76
2024/01/02 10:01:23;;;;;;;;;;;6.50;99.90;;;;;;5042680;28;19912;-77
2024/01/02 10:03:57;;;;;;;;;;;6.40;99.90;;;;;;5060473;28;20415;-76
2024/01/02 10:06:41;;;;;;;;;;;6.40;99.90;;;;;;5042710;28;19905;-76
2024/01/02 10:09:15;;;;;;;;;;;6.30;99.90;;;;;;5042553;28;20386;-76
2024/01/02 10:11:59;;;;;;;;;;;6.30;99.90;;;;;;5042878;28;20121;-76
2024/01/02 10:14:27;;;;;;;;;;;6.40;99.90;;;;;;5044175;28;19905;-77
2024/01/02 10:17:05;;;;;;;;;;;6.30;99.90;;;;;;5045123;28;19909;-77
2024/01/02 10:19:49;;;;;;;;;;;6.40;99.90;;;;;;5042987;28;19916;-77
2024/01/02 10:22:18;;;;;;;;;;;6.40;99.90;;;;;;5038590;28;20336;-76
2024/01/02 10:24:47;;;;;;;;;;;6.40;99.90;;;;;;5056325;28;19904;-77
2024/01/02 10:27:20;;;;;;;;;;;6.50;99.90;;;;;;5056058;28;19915;-76
2024/01/02 10:30:03;;;;;;;;;;;6.50;99.90;;;;;;5038420;28;19958;-77
2024/01/02 10:32:37;;;;;;;;;;;6.70;99.90;;;;;;5056358;28;19905;-76
2024/01/02 10:35:10;;;;;;;;;;;6.80;99.90;;;;;;5037245;28;20380;-77
2024/01/02 10:37:46;;;;;;;;;;;6.90;99.90;;;;;;5020594;28;19909;-77
2024/01/02 10:40:23;;;;;;;;;;;6.90;99.90;;;;;;5055203;28;19917;-77
2024/01/02 10:42:57;;;;;;;;;;;7.00;99.90;;;;;;5037257;28;20566;-76
2024/01/02 10:45:41;;;;;;;;;;;7.10;99.90;;;;;;5037159;28;19908;-77
2024/01/02 10:48:09;;;;;;;;;;;7.20;99.90;;;;;;5055687;28;19916;-76
2024/01/02 10:50:47;;;;;;;;;;;7.30;99.90;;;;;;5037592;28;19904;-77
2024/01/02 10:53:47;;;;;;;;;;;7.30;99.90;;;;;;5054629;28;19909;-76
2024/01/02 10:56:19;;;;;;;;;;;7.40;99.90;;;;;;5015416;28;19904;-76
2024/01/02 10:59:17;;;;;;;;;;;7.40;99.90;;;;;;5037085;28;19959;-76
2024/01/02 11:01:45;;;;;;;;;;;7.50;99.90;;;;;;4993505;28;19949;-76
2024/01/02 11:04:19;;;;;;;;;;;7.60;99.90;;;;;;4986919;28;19909;-76
2024/01/02 11:06:49;;;;;;;;;;;7.60;99.90;;;;;;5039510;28;19904;-76
2024/01/02 11:09:29;;;;;;;;;;;7.60;99.90;;;;;;5057542;28;19904;-76
2024/01/02 11:11:57;;;;;;;;;;;7.70;99.90;;;;;;5057169;28;19996;-76
2024/01/02 11:14:24;;;;;;;;;;;7.70;99.90;;;;;;5039668;28;19953;-75
2024/01/02 11:16:52;;;;;;;;;;;7.60;99.90;;;;;;5056879;28;20365;-76
2024/01/02 11:19:22;;;;;;;;;;;7.50;99.90;;;;;;5057055;28;19905;-76
2024/01/02 11:21:51;;;;;;;;;;;7.40;99.90;;;;;;5038073;28;19996;-77
2024/01/02 11:24:22;;;;;;;;;;;7.30;99.90;;;;;;5038901;28;19905;-77
2024/01/02 11:26:49;;;;;;;;;;;7.20;99.90;;;;;;5037220;28;19931;-75
2024/01/02 11:29:21;;;;;;;;;;;7.10;99.90;;;;;;5038543;28;20296;-77
2024/01/02 11:31:49;;;;;;;;;;;7.10;99.90;;;;;;5057057;28;19908;-76
2024/01/02 11:34:23;;;;;;;;;;;7.00;99.90;;;;;;5054268;28;20412;-76
2024/01/02 11:36:55;;;;;;;;;;;6.90;99.90;;;;;;5038552;28;19904;-76
2024/01/02 11:39:39;;;;;;;;;;;6.90;99.90;;;;;;5038951;28;20419;-76
2024/01/02 11:42:08;;;;;;;;;;;7.00;99.90;;;;;;5037874;28;19923;-75
2024/01/02 11:44:49;;;;;;;;;;;7.00;99.90;;;;;;5038341;28;19904;-76
2024/01/02 11:47:27;;;;;;;;;;;7.00;99.90;;;;;;5056176;28;19954;-76
2024/01/02 11:49:54;;;;;;;;;;;7.00;99.90;;;;;;5056430;28;20419;-76
2024/01/02 11:52:19;;;;;;;;;;;7.00;99.90;;;;;;5056580;28;19912;-76
2024/01/02 11:55:06;;;;;;;;;;;7.00;99.90;;;;;;5057059;28;19904;-76
2024/01/02 11:57:46;;;;;;;;;;;7.00;99.90;;;;;;5056432;28;19905;-76
2024/01/02 12:00:13;;;;;;;;;;;7.00;99.90;;;;;;5056826;28;19916;-75
2024/01/02 12:02:48;;;;;;;;;;;6.90;99.90;;;;;;5056911;28;19909;-76
2024/01/02 12:05:31;;;;;;;;;;;6.90;99.90;;;;;;5038785;28;19904;-76
2024/01/02 12:07:57;;;;;;;;;;;6.80;99.90;;;;;;5055197;28;19912;-76
2024/01/02 12:10:26;;;;;;;;;;;6.70;99.90;;;;;;5037835;28;19959;-76
2024/01/02 12:12:52;;;;;;;;;;;6.70;99.90;;;;;;5040013;28;19913;-76
2024/01/02 12:15:38;;;;;;;;;;;6.70;99.90;;;;;;5039920;28;19915;-76
2024/01/02 12:18:04;;;;;;;;;;;6.70;99.90;;;;;;5058251;28;19909;-76
2024/01/02 12:20:33;;;;;;;;;;;6.80;99.90;;;;;;5039995;28;19913;-76
2024/01/02 12:22:58;;;;;;;;;;;6.80;99.90;;;;;;5058077;28;19995;-77
2024/01/02 12:25:25;;;;;;;;;;;6.90;99.90;;;;;;5056954;28;20548;-76
2024/01/02 12:27:52;;;;;;;;;;;6.90;99.90;;;;;;5055321;28;19904;-76
2024/01/02 12:30:21;;;;;;;;;;;6.80;99.90;;;;;;5037784;28;19905;-76
2024/01/02 12:32:54;;;;;;;;;;;6.80;99.90;;;;;;5052945;28;19904;-76
2024/01/02 12:35:31;;;;;;;;;;;6.80;99.90;;;;;;5052555;28;20379;-77
2024/01/02 12:37:57;;;;;;;;;;;6.70;99.90;;;;;;5052557;28;19915;-77
2024/01/02 12:40:23;;;;;;;;;;;6.60;99.90;;;;;;5052556;28;19995;-76
2024/01/02 12:42:49;;;;;;;;;;;6.50;99.90;;;;;;5052458;28;19927;-77
2024/01/02 12:45:17;;;;;;;;;;;6.60;99.90;;;;;;5034539;28;20349;-75
2024/01/02 12:47:44;;;;;;;;;;;6.60;99.90;;;;;;5034457;28;20503;-76
2024/01/02 12:50:11;;;;;;;;;;;6.60;99.90;;;;;;5052925;28;19940;-75
2024/01/02 12:52:42;;;;;;;;;;;6.60;99.90;;;;;;5052600;28;19920;-75
2024/01/02 12:55:09;;;;;;;;;;;6.60;99.90;;;;;;5053102;28;19904;-75
2024/01/02 12:57:37;;;;;;;;;;;6.80;99.90;;;;;;5053738;28;19911;-76
2024/01/02 13:00:05;;;;;;;;;;;6.70;99.90;;;;;;5035586;28;19905;-76
2024/01/02 13:02:35;;;;;;;;;;;6.50;99.90;;;;;;5052940;28;19912;-76
2024/01/02 13:05:09;;;;;;;;;;;6.60;99.90;;;;;;5035087;28;19916;-76
2024/01/02 13:07:37;;;;;;;;;;;6.60;99.90;;;;;;5053438;28;20004;-76
2024/01/02 13:10:04;;;;;;;;;;;6.70;99.90;;;;;;5053141;28;19912;-76
2024/01/02 13:12:30;;;;;;;;;;;6.60;99.90;;;;;;5035625;28;19958;-75
2024/01/02 13:14:57;;;;;;;;;;;6.40;99.90;;;;;;5035626;28;20323;-76
2024/01/02 13:17:22;;;;;;;;;;;6.30;99.90;;;;;;5039459;28;19952;-75
2024/01/02 13:19:48;;;;;;;;;;;6.30;99.90;;;;;;5051694;28;19921;-76
2024/01/02 13:22:21;;;;;;;;;;;6.40;99.90;;;;;;5057212;28;19913;-76
2024/01/02 13:24:48;;;;;;;;;;;6.30;99.90;;;;;;5039493;28;19927;-76
2024/01/02 13:27:17;;;;;;;;;;;6.30;99.90;;;;;;5038540;28;19999;-76
2024/01/02 13:29:48;;;;;;;;;;;6.30;99.90;;;;;;5038305;28;19904;-76
2024/01/02 13:32:14;;;;;;;;;;;6.20;99.90;;;;;;5038436;28;19932;-76
2024/01/02 13:34:40;;;;;;;;;;;6.20;99.90;;;;;;5056713;28;19955;-76
2024/01/02 13:37:06;;;;;;;;;;;6.20;99.90;;;;;;5056778;28;19904;-76
2024/01/02 13:39:33;;;;;;;;;;;6.30;99.90;;;;;;5038808;28;19909;-76
2024/01/02 13:42:02;;;;;;;;;;;6.30;99.90;;;;;;5036881;28;19952;-76
2024/01/02 13:44:29;;;;;;;;;;;6.20;99.90;;;;;;5056087;28;19909;-76
2024/01/02 13:46:54;;;;;;;;;;;6.30;99.90;;;;;;5057344;28;19911;-77
2024/01/02 13:49:23;;;;;;;;;;;6.30;99.90;;;;;;5056535;28;19908;-76
2024/01/02 13:51:49;;;;;;;;;;;6.30;99.90;;;;;;5056761;28;19915;-76
2024/01/02 13:54:15;;;;;;;;;;;6.30;99.90;;;;;;5057074;28;19904;-76
2024/01/02 13:56:47;;;;;;;;;;;6.30;99.90;;;;;;5039119;28;19905;-75
2024/01/02 13:59:13;;;;;;;;;;;6.40;99.90;;;;;;5039381;28;19905;-76
2024/01/02 14:01:41;;;;;;;;;;;6.50;99.90;;;;;;5058437;28;19913;-76
2024/01/02 14:04:08;;;;;;;;;;;6.50;99.90;;;;;;5040610;28;19999;-77
2024/01/02 14:06:36;;;;;;;;;;;6.40;99.90;;;;;;5041021;28;19912;-76
2024/01/02 14:09:14;;;;;;;;;;;6.40;99.90;;;;;;5040533;28;19944;-76
2024/01/02 14:11:59;;;;;;;;;;;6.40;99.90;;;;;;5040478;28;19912;-76
2024/01/02 14:14:43;;;;;;;;;;;6.30;99.90;;;;;;5040299;28;19905;-76
2024/01/02 14:17:13;;;;;;;;;;;6.20;99.90;;;;;;5058529;28;19909;-76
2024/01/02 14:19:45;;;;;;;;;;;6.20;99.90;;;;;;5058487;28;19909;-77
2024/01/02 14:22:26;;;;;;;;;;;6.20;99.90;;;;;;5040457;28;19916;-77
2024/01/02 14:24:52;;;;;;;;;;;6.20;99.90;;;;;;5058646;28;20253;-76
2024/01/02 14:27:21;;;;;;;;;;;6.20;99.90;;;;;;5056361;28;19913;-76
2024/01/02 14:30:08;;;;;;;;;;;6.20;99.90;;;;;;5057127;28;19974;-75
2024/01/02 14:32:42;;;;;;;;;;;6.20;99.90;;;;;;5039323;28;19905;-75
2024/01/02 14:35:15;;;;;;;;;;;6.30;99.90;;;;;;5039995;28;19976;-76